Ride Results

CareFlight at St Albans (10-06-2012)
Ride distance: 85.0 km

Outcomes - CareFlight at St Albans (10-06-2012)
Division No. of Entries Retired / DNE Completed Withdrawn Ineligible V/O Percentage Completed
HW 22 - 19 2 - 1 86.36%
MW 32 - 26 2 - 4 81.25%
LW 21 - 16 3 - 2 76.19%
JN 4 - 2 1 - 1 50.00%
Totals 79 - 63 8 - 8 79.75%
Results - CareFlight at St Albans (10-06-2012)
No. Rider Horse Place Time Leg Speeds Total
Km/Hr
H/R bpm
Heavyweight
47 Ian Dreghorn Mountain Breeze Jack The Ripper 1 6:07:00 15.3, 12.2 13.90 34, 47, 49 (Avg:48)
9 Steve Brisbane JonDeLe Madison 2 6:14:00 14.6, 12.4 13.64 32, 38, 41 (Avg:39)
75 Gavin Peacock Eclipse 3 6:15:00 14.9, 11.9 13.60 36, 46, 50 (Avg:48)
26 Con Bouzianis Conderosa Spartacus 4 6:17:00 15.3, 11.5 13.53 37, 42, 54 (Avg:48)
16 Peter Luthy Eljannah Majid 5 6:55:00 13.2, 11.1 12.29 34, 37, 46 (Avg:41)
72 Andrew Jonkers Girilambone Comet 6 6:58:00 14.4, 9.9 12.20 32, 36, 42 (Avg:39)
41 Gary Thomas Ben Mariah 7 7:01:00 13.9, 10.1 12.11 33, 46, 56 (Avg:51)
48 Charles Gauci Stacey-Le Zorro 8 7:08:00 12.4, 11.2 11.92 40, 42, 48 (Avg:45)
32 Marty Gregson Burren-dah Gladiator 9 7:23:00 14.6, 8.8 11.51 52, 40, 58 (Avg:49)
55 Stuart Hitchcock Ralvon Courier 10 7:34:00 12.6, 9.6 11.23 38, 49, 54 (Avg:51)
53 Jason Duff Aratahnes Premier 11 7:37:00 12.8, 9.4 11.16 39, 44, 50 (Avg:47)
73 Peter Norman Danjera Jed 12 7:39:00 12.3, 9.6 11.11 38, 40, 50 (Avg:45)
24 Hannah Barton Santander Aladdin 13 7:49:00 12.3, 9.2 10.87 34, 54, 56 (Avg:55)
49 Haydn Fisher Kailani Shatara 13 7:49:00 12.2, 9.3 10.87 34, 42, 59 (Avg:50)
57 Raymond Smith Istana Sulaiman 15 7:50:00 12.3, 9.2 10.85 40, 42, 57 (Avg:49)
3 Keith Nagle Tristram Enforcer 16 8:06:00 12.4, 8.5 10.49 34, 40, 55 (Avg:47)
70 Stephen Webb Shakla's Sudden Impact 17 8:10:00 11.5, 9.1 10.41 48, 46, 52 (Avg:49)
15 Rod Mitchell Aloha Tribal Warrior 18 8:11:00 11.4, 9.2 10.39 36, 49, 52 (Avg:50)
34 Michael Knihinicki Fenwick Finale 19 9:02:00 10.3, 8.3 9.41 30, 43, 50 (Avg:46)
28 Phil Coleman Alnotarj Statistic Withdrawn L1 0:00:00 - - 38, 38 (Avg:38)
77 Evan Drain-Shepheard Currowan Clancy Lame L1 0:00:00 21.7 - 37, 48 (Avg:48)
22 Sue Warren Warren Park O.B. One Withdrawn L1 0:00:00 - - 34, 42 (Avg:42)
Middleweight
76 Jenny Shepheard Currowan Brizzy 1 4:33:00 21.7, 15.5 18.68 40, 42, 47 (Avg:44)
66 Ben Hudson Kurrajong Oak 2 5:08:00 20.5, 12.9 16.56 33, 44, 45 (Avg:44)
25 Tom Bouzianis Conderosa Zoltan 3 5:51:00 15.3, 13.4 14.53 40, 46, 48 (Avg:47)
42 Michael Cummins Winter Hill Alice 4 6:00:00 15.3, 12.7 14.17 34, 42, 44 (Avg:43)
50 Gil Stevenson Thalaba Touch of Gold 5 6:07:00 16.8, 11.1 13.90 42, 47, 48 (Avg:47)
12 Lisa Swan Jon De Le Jacklyn 6 6:14:00 14.6, 12.4 13.64 46, 40, 48 (Avg:44)
71 Kylie Jonkers Girilambone Aurora 7 6:58:00 14.4, 9.9 12.20 34, 42, 43 (Avg:42)
46 Adam Kirk Harmere Morocco 8 7:01:00 12.4, 11.6 12.11 35, 38, 46 (Avg:42)
8 Allana Rempel Ralvon Milarna 9 7:10:00 12.4, 11.1 11.86 34, 43, 45 (Avg:44)
51 Ian Burns Miss B Havin 10 7:15:00 13.6, 9.7 11.72 37, 46, 53 (Avg:49)
45 Fiona Meller Malu Vale Embers 10 7:15:00 13.6, 9.7 11.72 29, 38, 43 (Avg:40)
56 April Bonham Lyndrian Genesis 12 7:34:00 12.6, 9.6 11.23 38, 43, 45 (Avg:44)
54 Brooke Campbell Imparja Ben 13 7:37:00 12.8, 9.4 11.16 48, 48, 50 (Avg:49)
20 Carol Major Saradon 14 7:39:00 12.6, 9.4 11.11 36, 49, 60 (Avg:54)
63 Kim Hagon Diamond R Boston 15 7:49:00 13.2, 8.6 10.87 37, 48, 52 (Avg:50)
35 Chris Noonan Coolinda Park Heeza Lad 16 7:50:00 11.9, 9.5 10.85 36, 42, 43 (Avg:42)
64 Daphne Phillips Malleegrove Samsara 17 7:54:00 11.9, 9.3 10.76 40, 44, 49 (Avg:46)
31 Virginia Blain Suncrest Diva 18 8:02:00 11.9, 9.0 10.58 36, 49, 52 (Avg:50)
30 Claudia Reid Ningadoo Tornado 18 8:02:00 11.9, 9.0 10.58 40, 42, 47 (Avg:44)
40 Mathew Broome Bellarine Asti 20 8:04:00 10.6, 10.3 10.54 37, 48, 48 (Avg:48)
17 Terry Wood Tallawarra Chance 21 8:05:00 10.5, 10.4 10.52 36, 43, 46 (Avg:44)
18 Susan Woodward Tallawarra Holly 21 8:05:00 10.5, 10.4 10.52 30, 39, 44 (Avg:41)
2 Jennifer Rogers Tristram Hero 23 8:06:00 12.4, 8.5 10.49 34, 38, 50 (Avg:44)
65 Alan West Ehsun Sahara 24 8:39:00 12.3, 7.6 9.83 36, 45, 44 (Avg:44)
33 Allison Knihinicki Arabiana Shaklisha 25 9:02:00 10.3, 8.3 9.41 32, 47, 49 (Avg:48)
14 Jessica Cass Attalah Resyk 26 9:38:00 10.3, 7.2 8.82 37, 43, 58 (Avg:50)
60 Sam Cunningham Chilli Chilli Bang Bang Heart Rate L1 0:00:00 12.2 - 35, 72 (Avg:72)
68 Garry Matthews Burralga Scandal Lame L1 0:00:00 11.9 - 29, 38 (Avg:38)
44 David Player Ryton Pipes of Peace Lame L1 0:00:00 20.5 - 28, 42 (Avg:42)
13 Ruth Van der Wegen Attallah Esq Jabu Lame L1 0:00:00 49.9 - 42, 48 (Avg:48)
79 Barbara Wiecek Al Khalil Withdrawn L1 0:00:00 - - 33, 48 (Avg:48)
37 Ashley Thomas Image of Gold Withdrawn P/R 0:00:00 - - 36
Lightweight
10 April Newman Jon De Le Jasper 1 6:14:00 14.8, 12.2 13.64 34, 37, 44 (Avg:40)
29 Julie Brooks Aloha Byshara 2 6:15:00 15.2, 11.7 13.60 33, 41, 56 (Avg:48)
1 Robin Young Razorback Kadance 2 6:15:00 15.2, 11.7 13.60 31, 44, 49 (Avg:46)
7 Robin Gossip Lila 4 6:58:00 13.7, 10.4 12.20 29, 45, 42 (Avg:43)
11 Sue Todd Shakista 4 6:58:00 13.7, 10.4 12.20 34, 46, 47 (Avg:46)
43 Cherry Cummins Aloha Vision 6 7:08:00 12.3, 11.3 11.92 32, 34, 44 (Avg:39)
74 Shelly Ison Valinor Park Solly 7 7:39:00 12.3, 9.6 11.11 33, 38, 40 (Avg:39)
6 Vanessa Richardson Rowallan Sovereign 7 7:39:00 12.4, 9.6 11.11 36, 42, 45 (Avg:43)
61 Jacque Thoms Blake's Heaven Harissa 7 7:39:00 12.2, 9.8 11.11 32, 40, 46 (Avg:43)
59 Michael Broderick The Wings of Abilene 10 7:49:00 12.4, 9.2 10.87 36, 41, 46 (Avg:43)
5 Narelle Bush Larzar 10 7:49:00 12.3, 9.2 10.87 38, 52, 56 (Avg:54)
39 Lydia Thomson Raymar Bennjamin 12 8:04:00 10.6, 10.3 10.54 37, 44, 49 (Avg:46)
62 Melanie Anderson Gandari Alva Caasteele 13 8:09:00 11.4, 9.2 10.43 32, 52, 49 (Avg:50)
69 Danielle Beard Aloha Tornado 14 8:10:00 11.5, 9.1 10.41 29, 41, 54 (Avg:47)
78 Mary Hollingsworth Sabir 14 8:10:00 12.0, 8.6 10.41 35, 42, 51 (Avg:46)
58 Donna Scott Suncrest Beata 16 8:41:00 10.3, 9.0 9.79 36, 39, 40 (Avg:39)
67 Courtney Chapman Kurrajong Blue Jeans Lame L2 0:00:00 12.4, 9.5 - 31, 38, 46 (Avg:42)
38 Emma Broome Raymar Hassan Withdrawn L1 0:00:00 - - 41, 42 (Avg:42)
19 Ann English Cinbel-A-Chanele Withdrawn L1 0:00:00 - - 42, 47 (Avg:47)
27 Ros Ryan Cloudburst Lame L1 0:00:00 12.2 - 40, 45 (Avg:45)
52 Dody Sinfield Jewkes Withdrawn L1 0:00:00 - - 30, 43 (Avg:43)
Junior
36 Indigo Noonan Orr-Brae Rajiyaah 1 7:50:00 11.9, 9.5 10.85 36, 43, 48 (Avg:45)
23 Mia Bodewes Booramby Jacob 2 9:04:00 10.1, 8.4 9.38 44, 44, 44 (Avg:44)
4 Shantel Nagle Burren-dah Narla Lame L2 0:00:00 14.6, 8.8 - 36, 44, 46 (Avg:45)
21 Tayla Warren Warren Park Kiara Withdrawn L1 0:00:00 - - 36, 42 (Avg:42)